Time;durP1;ratioP1;P1;durP2;ratioP2;P2;SDS_P1;SDS_P2;PMS_P1;PMS_P2;Temp;Humidity;BMP_temperature;BMP_pressure;BME280_temperature;BME280_humidity;BME280_pressure;Samples;Min_cycle;Max_cycle;Signal;HPM_P1;HPM_P2
2022/06/06 00:00:43;;;;;;;;;;;15.30;99.90;;;;;;5088828;28;19931;-69
2022/06/06 00:03:10;;;;;;;;;;;15.30;99.90;;;;;;5088848;28;20309;-68
2022/06/06 00:05:37;;;;;;;;;;;15.30;99.90;;;;;;5089552;28;19924;-69
2022/06/06 00:08:04;;;;;;;;;;;15.30;99.90;;;;;;5090116;28;20018;-68
2022/06/06 00:10:31;;;;;;;;;;;15.30;99.90;;;;;;5088439;28;19924;-69
2022/06/06 00:12:59;;;;;;;;;;;15.30;99.90;;;;;;5089768;28;20003;-69
2022/06/06 00:15:26;;;;;;;;;;;15.30;99.90;;;;;;5091974;28;19967;-68
2022/06/06 00:17:53;;;;;;;;;;;15.20;99.90;;;;;;5092999;28;20399;-68
2022/06/06 00:20:19;;;;;;;;;;;15.20;99.90;;;;;;5092073;28;20022;-68
2022/06/06 00:22:46;;;;;;;;;;;15.20;99.90;;;;;;5092500;28;19977;-68
2022/06/06 00:25:14;;;;;;;;;;;15.20;99.90;;;;;;5093068;28;20369;-68
2022/06/06 00:27:41;;;;;;;;;;;15.20;99.90;;;;;;5093960;28;20391;-68
2022/06/06 00:30:09;;;;;;;;;;;15.20;99.90;;;;;;5083049;28;20356;-68
2022/06/06 00:35:21;;;;;;;;;;;15.20;99.90;;;;;;5089005;28;19954;-68
2022/06/06 00:37:47;;;;;;;;;;;15.20;99.90;;;;;;5088737;28;19932;-68
2022/06/06 00:40:16;;;;;;;;;;;15.10;99.90;;;;;;5083679;28;20482;-69
2022/06/06 00:42:43;;;;;;;;;;;15.10;99.90;;;;;;5079327;28;19975;-68
2022/06/06 00:45:27;;;;;;;;;;;15.10;99.90;;;;;;5090214;28;21538;-68
2022/06/06 00:47:58;;;;;;;;;;;15.10;99.90;;;;;;5064651;28;20016;-68
2022/06/06 00:50:29;;;;;;;;;;;15.10;99.90;;;;;;5089302;28;19967;-69
2022/06/06 00:52:56;;;;;;;;;;;15.10;99.90;;;;;;5092719;28;19928;-69
2022/06/06 00:55:25;;;;;;;;;;;15.00;99.90;;;;;;5077479;28;20039;-68
2022/06/06 00:57:54;;;;;;;;;;;15.00;99.90;;;;;;5091844;28;19924;-68
2022/06/06 01:00:22;;;;;;;;;;;15.00;99.90;;;;;;5085408;28;20363;-68
2022/06/06 01:02:50;;;;;;;;;;;15.00;99.90;;;;;;5091535;28;19934;-68
2022/06/06 01:05:19;;;;;;;;;;;15.00;99.90;;;;;;5090038;28;20369;-68
2022/06/06 01:07:45;;;;;;;;;;;15.00;99.90;;;;;;5087928;28;19975;-69
2022/06/06 01:10:14;;;;;;;;;;;14.90;99.90;;;;;;5091390;28;19959;-68
2022/06/06 01:12:41;;;;;;;;;;;14.90;99.90;;;;;;5092359;28;19931;-68
2022/06/06 01:15:09;;;;;;;;;;;14.80;99.90;;;;;;5092276;28;19960;-68
2022/06/06 01:17:40;;;;;;;;;;;14.80;99.90;;;;;;5091804;28;20023;-68
2022/06/06 01:20:14;;;;;;;;;;;14.70;99.90;;;;;;5091781;28;19955;-68
2022/06/06 01:23:10;;;;;;;;;;;14.70;99.90;;;;;;5089441;28;19967;-68
2022/06/06 01:25:48;;;;;;;;;;;14.60;99.90;;;;;;5090597;28;19971;-68
2022/06/06 01:28:35;;;;;;;;;;;14.60;99.90;;;;;;5090049;28;19928;-68
2022/06/06 01:31:06;;;;;;;;;;;14.60;99.90;;;;;;5077305;28;20229;-68
2022/06/06 01:33:47;;;;;;;;;;;14.50;99.90;;;;;;5092267;28;19932;-68
2022/06/06 01:36:14;;;;;;;;;;;14.50;99.90;;;;;;5088301;28;20003;-68
2022/06/06 01:38:40;;;;;;;;;;;14.50;99.90;;;;;;5091124;28;19979;-68
2022/06/06 01:41:10;;;;;;;;;;;14.50;99.90;;;;;;5093659;28;20471;-68
2022/06/06 01:43:37;;;;;;;;;;;14.40;99.90;;;;;;5090762;28;20026;-68
2022/06/06 01:46:09;;;;;;;;;;;14.30;99.90;;;;;;5094705;28;19967;-68
2022/06/06 01:48:37;;;;;;;;;;;14.20;99.90;;;;;;5091672;28;20020;-68
2022/06/06 01:51:08;;;;;;;;;;;14.20;99.90;;;;;;5082187;28;20383;-68
2022/06/06 01:53:36;;;;;;;;;;;14.10;99.90;;;;;;5089617;28;19971;-68
2022/06/06 01:56:03;;;;;;;;;;;14.10;99.90;;;;;;5093424;28;19923;-68
2022/06/06 01:58:32;;;;;;;;;;;14.10;99.90;;;;;;5090470;28;19930;-68
2022/06/06 02:00:59;;;;;;;;;;;14.00;99.90;;;;;;5085118;28;19931;-68
2022/06/06 02:03:28;;;;;;;;;;;14.00;99.90;;;;;;5082849;28;19924;-68
2022/06/06 02:05:54;;;;;;;;;;;13.90;99.90;;;;;;5084264;28;19946;-68
2022/06/06 02:08:21;;;;;;;;;;;13.80;99.90;;;;;;5091876;28;20018;-68
2022/06/06 02:10:48;;;;;;;;;;;13.80;99.90;;;;;;5091283;28;20008;-68
2022/06/06 02:13:15;;;;;;;;;;;13.80;99.90;;;;;;5092245;28;20154;-68
2022/06/06 02:15:42;;;;;;;;;;;13.70;99.90;;;;;;5091273;28;19924;-68
2022/06/06 02:18:08;;;;;;;;;;;13.70;99.90;;;;;;5089628;28;19974;-69
2022/06/06 02:20:37;;;;;;;;;;;13.60;99.90;;;;;;5074536;28;20011;-68
2022/06/06 02:23:03;;;;;;;;;;;13.60;99.90;;;;;;5083453;28;20431;-68
2022/06/06 02:25:31;;;;;;;;;;;13.60;99.90;;;;;;5090694;28;19931;-68
2022/06/06 02:27:57;;;;;;;;;;;13.50;99.90;;;;;;5092665;28;20015;-68
2022/06/06 02:30:25;;;;;;;;;;;13.50;99.90;;;;;;5076516;28;19924;-68
2022/06/06 02:32:52;;;;;;;;;;;13.40;99.90;;;;;;5079601;28;19970;-70
2022/06/06 02:35:19;;;;;;;;;;;13.40;99.90;;;;;;5078656;28;19924;-69
2022/06/06 02:37:48;;;;;;;;;;;13.30;99.90;;;;;;5089267;28;19928;-70
2022/06/06 02:40:16;;;;;;;;;;;13.30;99.90;;;;;;5080420;28;20015;-70
2022/06/06 02:42:43;;;;;;;;;;;13.30;99.90;;;;;;5086746;28;19930;-70
2022/06/06 02:45:10;;;;;;;;;;;13.20;99.90;;;;;;5090823;28;20448;-70
2022/06/06 02:47:37;;;;;;;;;;;13.20;99.90;;;;;;5093361;28;19951;-69
2022/06/06 02:50:05;;;;;;;;;;;13.10;99.90;;;;;;5090325;28;20007;-69
2022/06/06 02:52:33;;;;;;;;;;;13.10;99.90;;;;;;5091765;28;20433;-68
2022/06/06 02:55:01;;;;;;;;;;;13.10;99.90;;;;;;5089191;28;19930;-70
2022/06/06 02:57:29;;;;;;;;;;;13.00;99.90;;;;;;5078245;28;20007;-67
2022/06/06 02:59:58;;;;;;;;;;;13.00;99.90;;;;;;5089813;28;19968;-67
2022/06/06 03:02:24;;;;;;;;;;;13.00;99.90;;;;;;5092074;28;20461;-70
2022/06/06 03:04:51;;;;;;;;;;;12.90;99.90;;;;;;5078274;28;20282;-70
2022/06/06 03:07:29;;;;;;;;;;;12.90;99.90;;;;;;5075718;28;20422;-70
2022/06/06 03:10:09;;;;;;;;;;;12.80;99.90;;;;;;5090958;28;19930;-70
2022/06/06 03:12:43;;;;;;;;;;;12.80;99.90;;;;;;5092084;28;19977;-69
2022/06/06 03:15:19;;;;;;;;;;;12.80;99.90;;;;;;5077134;28;19967;-70
2022/06/06 03:20:56;;;;;;;;;;;12.70;99.90;;;;;;5041914;28;19924;-70
2022/06/06 03:23:32;;;;;;;;;;;12.60;99.90;;;;;;5089994;28;19930;-70
2022/06/06 03:26:02;;;;;;;;;;;12.60;99.90;;;;;;5088594;28;19924;-68
2022/06/06 03:28:35;;;;;;;;;;;12.60;99.90;;;;;;5089131;28;20366;-70
2022/06/06 03:31:07;;;;;;;;;;;12.60;99.90;;;;;;5082062;28;19975;-68
2022/06/06 03:33:37;;;;;;;;;;;12.60;99.90;;;;;;5090609;28;19986;-68
2022/06/06 03:36:10;;;;;;;;;;;12.50;99.90;;;;;;5091451;28;19975;-68
2022/06/06 03:38:40;;;;;;;;;;;12.50;99.90;;;;;;5086092;28;19931;-68
2022/06/06 03:41:10;;;;;;;;;;;12.50;99.90;;;;;;5071679;28;20011;-68
2022/06/06 03:43:44;;;;;;;;;;;12.50;99.90;;;;;;5080295;28;19996;-68
2022/06/06 03:46:16;;;;;;;;;;;12.40;99.90;;;;;;5090077;28;20433;-68
2022/06/06 03:48:47;;;;;;;;;;;12.40;99.90;;;;;;5087542;28;20031;-69
2022/06/06 03:51:19;;;;;;;;;;;12.40;99.90;;;;;;5090224;28;19967;-68
2022/06/06 03:53:49;;;;;;;;;;;12.40;99.90;;;;;;5088816;28;20015;-68
2022/06/06 03:56:23;;;;;;;;;;;12.40;99.90;;;;;;5092004;28;19924;-68
2022/06/06 03:58:51;;;;;;;;;;;12.30;99.90;;;;;;5077124;28;20011;-68
2022/06/06 04:01:20;;;;;;;;;;;12.30;99.90;;;;;;5090055;28;19930;-68
2022/06/06 04:03:49;;;;;;;;;;;12.30;99.90;;;;;;5076288;28;19947;-68
2022/06/06 04:06:16;;;;;;;;;;;12.30;99.90;;;;;;5091651;28;19931;-69
2022/06/06 04:08:43;;;;;;;;;;;12.30;99.90;;;;;;5087073;28;19929;-68
2022/06/06 04:11:16;;;;;;;;;;;12.30;99.90;;;;;;5072907;28;19924;-69
2022/06/06 04:13:44;;;;;;;;;;;12.30;99.90;;;;;;5089417;28;20015;-68
2022/06/06 04:16:19;;;;;;;;;;;12.30;99.90;;;;;;5091487;28;19924;-68
2022/06/06 04:18:53;;;;;;;;;;;12.30;99.90;;;;;;5087000;28;20023;-68
2022/06/06 04:21:24;;;;;;;;;;;12.30;99.90;;;;;;5090384;28;19924;-68
2022/06/06 04:23:58;;;;;;;;;;;12.30;99.90;;;;;;5087335;28;20010;-68
2022/06/06 04:26:29;;;;;;;;;;;12.30;99.90;;;;;;5085871;28;19924;-68
2022/06/06 04:29:03;;;;;;;;;;;12.40;99.90;;;;;;5088982;28;19931;-68
2022/06/06 04:31:35;;;;;;;;;;;12.30;99.90;;;;;;5089684;28;19947;-68
2022/06/06 04:34:09;;;;;;;;;;;12.40;99.90;;;;;;5081813;28;20018;-68
2022/06/06 04:36:40;;;;;;;;;;;12.50;99.90;;;;;;5073090;28;19970;-69
2022/06/06 04:39:13;;;;;;;;;;;12.50;99.90;;;;;;5079468;28;20027;-69
2022/06/06 04:41:44;;;;;;;;;;;12.50;99.90;;;;;;5085314;28;20036;-69
2022/06/06 04:44:13;;;;;;;;;;;12.50;99.90;;;;;;5081590;28;20660;-69
2022/06/06 04:46:45;;;;;;;;;;;12.50;99.90;;;;;;5091960;28;19974;-69
2022/06/06 04:49:12;;;;;;;;;;;12.50;99.90;;;;;;5088729;28;20021;-68
2022/06/06 04:51:40;;;;;;;;;;;12.60;99.90;;;;;;5089504;28;19935;-68
2022/06/06 04:54:08;;;;;;;;;;;12.70;99.90;;;;;;5076968;28;20438;-68
2022/06/06 04:56:35;;;;;;;;;;;12.70;99.90;;;;;;5090727;28;20014;-68
2022/06/06 04:59:02;;;;;;;;;;;12.80;99.90;;;;;;5080539;28;20387;-68
2022/06/06 05:01:29;;;;;;;;;;;12.80;99.90;;;;;;5086368;28;19939;-68
2022/06/06 05:03:57;;;;;;;;;;;12.90;99.90;;;;;;5080904;28;19924;-68
2022/06/06 05:06:30;;;;;;;;;;;13.00;99.90;;;;;;5091525;28;19947;-68
2022/06/06 05:09:02;;;;;;;;;;;13.20;99.90;;;;;;5092726;28;19931;-68
2022/06/06 05:11:36;;;;;;;;;;;13.40;99.90;;;;;;5095832;28;20015;-68
2022/06/06 05:14:22;;;;;;;;;;;13.50;99.90;;;;;;5076374;28;19924;-68
2022/06/06 05:17:04;;;;;;;;;;;13.70;99.90;;;;;;5084786;28;20014;-68
2022/06/06 05:19:50;;;;;;;;;;;13.70;99.90;;;;;;5083023;28;19968;-68
2022/06/06 05:22:38;;;;;;;;;;;13.60;99.90;;;;;;5092041;28;19929;-68
2022/06/06 05:25:22;;;;;;;;;;;13.60;99.90;;;;;;5089981;28;19930;-69
2022/06/06 05:27:58;;;;;;;;;;;13.60;99.90;;;;;;5077474;28;19978;-69
2022/06/06 05:30:29;;;;;;;;;;;13.60;99.90;;;;;;5093808;28;19974;-70
2022/06/06 05:33:02;;;;;;;;;;;13.70;99.90;;;;;;5074724;28;20004;-70
2022/06/06 05:35:41;;;;;;;;;;;13.80;99.90;;;;;;5075028;28;19963;-69
2022/06/06 05:38:13;;;;;;;;;;;14.00;99.90;;;;;;5074596;28;19924;-70
2022/06/06 05:40:42;;;;;;;;;;;14.20;99.90;;;;;;5088011;28;20011;-70
2022/06/06 05:43:23;;;;;;;;;;;14.30;99.90;;;;;;5094245;28;19969;-69
2022/06/06 05:45:53;;;;;;;;;;;14.30;99.90;;;;;;5086578;28;19928;-69
2022/06/06 05:48:25;;;;;;;;;;;14.30;99.90;;;;;;5073804;28;20407;-70
2022/06/06 05:50:59;;;;;;;;;;;14.40;99.90;;;;;;5074020;28;19929;-70
2022/06/06 05:53:32;;;;;;;;;;;14.40;99.90;;;;;;5090490;28;19924;-68
2022/06/06 05:56:16;;;;;;;;;;;14.50;99.90;;;;;;5073909;28;19924;-69
2022/06/06 05:58:53;;;;;;;;;;;14.50;99.90;;;;;;5090224;28;19924;-69
2022/06/06 06:01:28;;;;;;;;;;;14.50;99.90;;;;;;5092881;28;19959;-70
2022/06/06 06:04:10;;;;;;;;;;;14.50;99.90;;;;;;5083265;28;19933;-69
2022/06/06 06:06:41;;;;;;;;;;;14.50;99.90;;;;;;5092689;28;20015;-69
2022/06/06 06:09:23;;;;;;;;;;;14.60;99.90;;;;;;5086105;28;20019;-69
2022/06/06 06:12:02;;;;;;;;;;;14.70;99.90;;;;;;5073895;28;20023;-70
2022/06/06 06:14:34;;;;;;;;;;;15.10;99.90;;;;;;5074459;28;19930;-69
2022/06/06 06:17:02;;;;;;;;;;;16.50;99.90;;;;;;5075500;28;19928;-70
2022/06/06 06:19:32;;;;;;;;;;;18.40;99.90;;;;;;5080482;28;19924;-69
2022/06/06 06:22:02;;;;;;;;;;;19.40;96.00;;;;;;5092548;28;19924;-67
2022/06/06 06:24:31;;;;;;;;;;;20.00;92.00;;;;;;5077613;28;19924;-69
2022/06/06 06:26:58;;;;;;;;;;;19.70;90.60;;;;;;5091711;28;20010;-68
2022/06/06 06:29:25;;;;;;;;;;;20.00;90.40;;;;;;5091561;28;19973;-67
2022/06/06 06:32:02;;;;;;;;;;;20.90;87.40;;;;;;5093375;28;19924;-68
2022/06/06 06:34:34;;;;;;;;;;;21.40;79.80;;;;;;5087270;28;19946;-68
2022/06/06 06:37:09;;;;;;;;;;;20.30;78.40;;;;;;5087597;28;19924;-68
2022/06/06 06:39:42;;;;;;;;;;;19.90;82.90;;;;;;5091434;28;19960;-68
2022/06/06 06:42:21;;;;;;;;;;;19.50;84.70;;;;;;5090470;28;20003;-67
2022/06/06 06:44:48;;;;;;;;;;;19.30;87.50;;;;;;5083287;28;19931;-68
2022/06/06 06:47:18;;;;;;;;;;;19.70;85.60;;;;;;5072501;28;20015;-69
2022/06/06 06:49:46;;;;;;;;;;;18.70;89.50;;;;;;5090786;28;19924;-69
2022/06/06 06:52:26;;;;;;;;;;;17.90;92.50;;;;;;5072457;28;19946;-68
2022/06/06 06:54:58;;;;;;;;;;;18.40;91.70;;;;;;5072585;28;19970;-67
2022/06/06 06:57:46;;;;;;;;;;;18.70;91.80;;;;;;5086653;28;19978;-67
2022/06/06 07:00:16;;;;;;;;;;;18.60;90.90;;;;;;5084072;28;20026;-68
2022/06/06 07:08:36;;;;;;;;;;;18.70;92.40;;;;;;5072863;28;19947;-68
2022/06/06 07:11:13;;;;;;;;;;;19.30;90.60;;;;;;5072040;28;19947;-68
2022/06/06 07:13:46;;;;;;;;;;;18.80;90.60;;;;;;5073164;28;19948;-68
2022/06/06 07:16:18;;;;;;;;;;;18.20;92.70;;;;;;5091460;28;20476;-69
2022/06/06 07:18:46;;;;;;;;;;;18.70;92.40;;;;;;5083397;28;20387;-67
2022/06/06 07:21:14;;;;;;;;;;;19.30;90.20;;;;;;5082330;28;19924;-69
2022/06/06 07:23:43;;;;;;;;;;;18.60;90.60;;;;;;5072595;28;20092;-69
2022/06/06 07:26:11;;;;;;;;;;;18.30;92.30;;;;;;5080604;28;19968;-68
2022/06/06 07:28:38;;;;;;;;;;;19.00;91.80;;;;;;5085207;28;19932;-68
2022/06/06 07:31:11;;;;;;;;;;;19.60;90.10;;;;;;5092145;28;19950;-67
2022/06/06 07:33:47;;;;;;;;;;;18.90;89.80;;;;;;5090682;28;19975;-68
2022/06/06 07:36:17;;;;;;;;;;;19.40;90.00;;;;;;5092729;28;19931;-68
2022/06/06 07:38:54;;;;;;;;;;;20.50;86.00;;;;;;5084265;28;19966;-68
2022/06/06 07:41:27;;;;;;;;;;;19.90;81.20;;;;;;5070853;28;19955;-68
2022/06/06 07:44:03;;;;;;;;;;;19.60;83.10;;;;;;5088641;28;19997;-68
2022/06/06 07:46:38;;;;;;;;;;;19.60;85.10;;;;;;5085855;28;20018;-68
2022/06/06 07:49:05;;;;;;;;;;;19.60;83.70;;;;;;5078309;28;19924;-68
2022/06/06 07:51:37;;;;;;;;;;;19.50;82.60;;;;;;5090894;28;20054;-68
2022/06/06 07:54:12;;;;;;;;;;;20.10;82.50;;;;;;5071803;28;19968;-68
2022/06/06 07:56:45;;;;;;;;;;;21.50;78.10;;;;;;5071927;28;19935;-68
2022/06/06 07:59:19;;;;;;;;;;;22.20;72.80;;;;;;5076261;28;19946;-67
2022/06/06 08:01:49;;;;;;;;;;;21.70;63.40;;;;;;5082778;28;20406;-68
2022/06/06 08:04:25;;;;;;;;;;;20.60;66.30;;;;;;5077490;28;20023;-69
2022/06/06 08:06:56;;;;;;;;;;;20.30;66.90;;;;;;5071110;28;19994;-68
2022/06/06 08:09:40;;;;;;;;;;;21.30;64.50;;;;;;5076627;28;20030;-68
2022/06/06 08:12:18;;;;;;;;;;;21.60;62.80;;;;;;5073469;28;19932;-68
2022/06/06 08:14:50;;;;;;;;;;;20.60;65.30;;;;;;5084660;28;19932;-68
2022/06/06 08:17:26;;;;;;;;;;;20.20;67.80;;;;;;5071364;28;20012;-68
2022/06/06 08:19:59;;;;;;;;;;;21.30;63.40;;;;;;5073062;28;20338;-68
2022/06/06 08:22:26;;;;;;;;;;;21.10;59.80;;;;;;5077732;28;19928;-68
2022/06/06 08:24:56;;;;;;;;;;;20.10;66.80;;;;;;5084234;28;20011;-67
2022/06/06 08:27:25;;;;;;;;;;;21.50;64.00;;;;;;5074138;28;19985;-67
2022/06/06 08:29:51;;;;;;;;;;;21.90;62.50;;;;;;5076182;28;20379;-68
2022/06/06 08:32:18;;;;;;;;;;;21.80;62.80;;;;;;5075539;28;19924;-69
2022/06/06 08:34:47;;;;;;;;;;;22.20;59.40;;;;;;5087054;28;19978;-68
2022/06/06 08:37:24;;;;;;;;;;;20.80;60.80;;;;;;5081149;28;19931;-67
2022/06/06 08:39:54;;;;;;;;;;;20.90;60.80;;;;;;5079015;28;19955;-69
2022/06/06 08:42:28;;;;;;;;;;;20.00;60.70;;;;;;5084220;28;20036;-67
2022/06/06 08:45:06;;;;;;;;;;;19.00;67.00;;;;;;5092472;28;19924;-67
2022/06/06 08:47:35;;;;;;;;;;;19.00;70.00;;;;;;5089034;28;19931;-68
2022/06/06 08:53:15;;;;;;;;;;;22.10;56.70;;;;;;5076148;28;19924;-68
2022/06/06 08:55:57;;;;;;;;;;;22.60;55.30;;;;;;5081361;28;19931;-68
2022/06/06 08:58:39;;;;;;;;;;;21.30;56.70;;;;;;5076042;28;19924;-67
2022/06/06 09:01:12;;;;;;;;;;;21.10;59.90;;;;;;5070383;28;19963;-69
2022/06/06 09:03:52;;;;;;;;;;;22.10;57.10;;;;;;5076989;28;20002;-67
2022/06/06 09:06:37;;;;;;;;;;;23.20;53.00;;;;;;5091223;28;19924;-68
2022/06/06 09:09:22;;;;;;;;;;;23.00;48.60;;;;;;5086236;28;19931;-68
2022/06/06 09:12:13;;;;;;;;;;;22.80;50.40;;;;;;5085260;28;19970;-68
2022/06/06 09:14:56;;;;;;;;;;;23.10;49.60;;;;;;5075345;28;19928;-68
2022/06/06 09:17:44;;;;;;;;;;;22.80;50.20;;;;;;5078427;28;20003;-67
2022/06/06 09:20:33;;;;;;;;;;;23.00;49.50;;;;;;5083185;28;20387;-68
2022/06/06 09:23:15;;;;;;;;;;;23.50;46.70;;;;;;5072990;28;20462;-68
2022/06/06 09:25:52;;;;;;;;;;;23.30;47.80;;;;;;5078922;28;20015;-69
2022/06/06 09:28:49;;;;;;;;;;;24.20;45.60;;;;;;5083214;28;20031;-67
2022/06/06 09:31:34;;;;;;;;;;;23.10;44.20;;;;;;5080919;28;19931;-67
2022/06/06 09:34:19;;;;;;;;;;;21.70;47.80;;;;;;5074124;28;19947;-67
2022/06/06 09:36:48;;;;;;;;;;;21.00;49.30;;;;;;5088104;28;20374;-68
2022/06/06 09:39:33;;;;;;;;;;;20.40;50.50;;;;;;5089581;28;19966;-68
2022/06/06 09:42:02;;;;;;;;;;;20.80;51.20;;;;;;5092756;28;19928;-66
2022/06/06 09:44:48;;;;;;;;;;;22.20;49.80;;;;;;5088828;28;19933;-67
2022/06/06 09:47:35;;;;;;;;;;;22.90;45.50;;;;;;5072734;28;20019;-68
2022/06/06 09:50:30;;;;;;;;;;;22.70;45.20;;;;;;5078400;28;19991;-67
2022/06/06 09:53:30;;;;;;;;;;;22.90;44.80;;;;;;5084861;28;20391;-67
2022/06/06 09:59:22;;;;;;;;;;;21.50;46.80;;;;;;5034901;28;19979;-67
2022/06/06 10:02:06;;;;;;;;;;;21.30;47.60;;;;;;5081113;28;19931;-67
2022/06/06 10:05:03;;;;;;;;;;;21.60;46.80;;;;;;5084242;28;20298;-67
2022/06/06 10:07:47;;;;;;;;;;;21.80;46.70;;;;;;5074549;28;19979;-67
2022/06/06 10:10:33;;;;;;;;;;;22.30;44.50;;;;;;5078944;28;19963;-67
2022/06/06 10:13:06;;;;;;;;;;;21.20;47.20;;;;;;5078448;28;19979;-67
2022/06/06 10:15:39;;;;;;;;;;;20.10;51.00;;;;;;5086112;28;20624;-67
2022/06/06 10:18:25;;;;;;;;;;;20.10;52.40;;;;;;5082013;28;19924;-68
2022/06/06 10:21:02;;;;;;;;;;;20.00;50.70;;;;;;5083930;28;20299;-68
2022/06/06 10:23:35;;;;;;;;;;;19.80;50.90;;;;;;5084705;28;19924;-67
2022/06/06 10:26:11;;;;;;;;;;;19.70;52.80;;;;;;5083573;28;20093;-67
2022/06/06 10:28:54;;;;;;;;;;;20.00;54.80;;;;;;5077338;28;19932;-67
2022/06/06 10:31:32;;;;;;;;;;;20.20;51.50;;;;;;5075484;28;20379;-66
2022/06/06 10:34:09;;;;;;;;;;;20.40;51.80;;;;;;5081081;28;19924;-68
2022/06/06 10:36:44;;;;;;;;;;;20.40;51.00;;;;;;5091928;28;20402;-68
2022/06/06 10:39:37;;;;;;;;;;;19.80;52.80;;;;;;5081942;28;19956;-68
2022/06/06 10:42:15;;;;;;;;;;;19.20;53.60;;;;;;5048323;28;19959;-68
2022/06/06 10:44:56;;;;;;;;;;;18.80;55.50;;;;;;5083098;28;19963;-68
2022/06/06 10:47:31;;;;;;;;;;;18.60;55.80;;;;;;5072387;28;20015;-68
2022/06/06 10:50:01;;;;;;;;;;;18.60;55.70;;;;;;5088156;28;19967;-68
2022/06/06 10:52:41;;;;;;;;;;;18.60;56.40;;;;;;5082005;28;20006;-68
2022/06/06 10:55:33;;;;;;;;;;;18.70;57.20;;;;;;5086283;28;19977;-67
2022/06/06 10:58:21;;;;;;;;;;;18.90;56.70;;;;;;5071627;28;20019;-66
2022/06/06 11:00:59;;;;;;;;;;;19.30;55.60;;;;;;5070749;28;19968;-66
2022/06/06 11:03:46;;;;;;;;;;;19.40;55.10;;;;;;5072939;28;19975;-67
2022/06/06 11:06:24;;;;;;;;;;;19.10;56.70;;;;;;5066633;28;20007;-67
2022/06/06 11:09:08;;;;;;;;;;;18.80;57.40;;;;;;5082458;28;19924;-68
2022/06/06 11:12:02;;;;;;;;;;;18.60;58.70;;;;;;5086152;28;19931;-67
2022/06/06 11:14:31;;;;;;;;;;;18.40;59.60;;;;;;5082780;28;20027;-68
2022/06/06 11:17:16;;;;;;;;;;;18.20;60.00;;;;;;5074221;28;19978;-67
2022/06/06 11:20:01;;;;;;;;;;;18.00;61.00;;;;;;5070980;28;20027;-67
2022/06/06 11:22:36;;;;;;;;;;;17.90;62.20;;;;;;5070314;28;19978;-67
2022/06/06 11:25:07;;;;;;;;;;;17.70;64.50;;;;;;5083302;28;19985;-69
2022/06/06 11:27:48;;;;;;;;;;;17.70;66.10;;;;;;5070899;28;19925;-66
2022/06/06 11:30:33;;;;;;;;;;;17.90;67.60;;;;;;5072986;28;19991;-70
2022/06/06 11:33:20;;;;;;;;;;;18.00;66.90;;;;;;5064685;28;20375;-70
2022/06/06 11:36:06;;;;;;;;;;;18.10;66.50;;;;;;5085714;28;20018;-69
2022/06/06 11:38:45;;;;;;;;;;;18.40;65.70;;;;;;5076755;28;20551;-69
2022/06/06 11:41:29;;;;;;;;;;;18.50;65.60;;;;;;5071389;28;19925;-69
2022/06/06 11:44:07;;;;;;;;;;;18.70;64.80;;;;;;5077946;28;19963;-68
2022/06/06 11:46:53;;;;;;;;;;;18.80;63.40;;;;;;5087705;28;19992;-69
2022/06/06 11:49:34;;;;;;;;;;;18.60;64.70;;;;;;5069113;28;19924;-69
2022/06/06 11:52:21;;;;;;;;;;;18.40;65.60;;;;;;5029772;28;20451;-68
2022/06/06 11:55:05;;;;;;;;;;;18.40;66.20;;;;;;5082025;28;19959;-69
2022/06/06 11:57:36;;;;;;;;;;;18.30;67.30;;;;;;5071680;28;19978;-69
2022/06/06 12:00:26;;;;;;;;;;;18.30;68.90;;;;;;5083339;28;19930;-66
2022/06/06 12:03:01;;;;;;;;;;;18.30;68.40;;;;;;5068445;28;19964;-68
2022/06/06 12:05:41;;;;;;;;;;;18.30;64.80;;;;;;5082120;28;20021;-68
2022/06/06 12:08:29;;;;;;;;;;;18.30;65.00;;;;;;5079591;28;19931;-68
2022/06/06 12:11:11;;;;;;;;;;;18.30;66.20;;;;;;5047449;28;19963;-68
2022/06/06 12:13:47;;;;;;;;;;;18.00;64.60;;;;;;5084085;28;20353;-68
2022/06/06 12:16:21;;;;;;;;;;;17.80;60.10;;;;;;5079853;28;20019;-68
2022/06/06 12:18:59;;;;;;;;;;;17.70;62.30;;;;;;5082738;28;19971;-68
2022/06/06 12:21:35;;;;;;;;;;;17.70;63.00;;;;;;5087418;28;19924;-69
2022/06/06 12:24:13;;;;;;;;;;;17.70;63.40;;;;;;5086229;28;19939;-69
2022/06/06 12:26:51;;;;;;;;;;;17.80;63.90;;;;;;5083599;28;19975;-69
2022/06/06 12:29:30;;;;;;;;;;;18.00;64.50;;;;;;5078380;28;19932;-69
2022/06/06 12:32:14;;;;;;;;;;;18.10;64.80;;;;;;5083204;28;19962;-69
2022/06/06 12:34:43;;;;;;;;;;;18.10;64.30;;;;;;5084859;28;19930;-69
2022/06/06 12:37:12;;;;;;;;;;;18.30;65.40;;;;;;5091484;28;19962;-68
2022/06/06 12:39:44;;;;;;;;;;;18.50;63.30;;;;;;5088326;28;19934;-69
2022/06/06 12:42:17;;;;;;;;;;;18.50;64.10;;;;;;5083253;28;19932;-68
2022/06/06 12:45:01;;;;;;;;;;;18.60;63.20;;;;;;5084459;28;19966;-67
2022/06/06 12:47:39;;;;;;;;;;;18.60;63.00;;;;;;5091721;28;19994;-68
2022/06/06 12:50:19;;;;;;;;;;;18.50;63.60;;;;;;5077813;28;19924;-67
2022/06/06 12:52:58;;;;;;;;;;;18.70;63.10;;;;;;5085528;28;19924;-68
2022/06/06 12:55:32;;;;;;;;;;;19.10;62.60;;;;;;5087104;28;20060;-68
2022/06/06 12:58:07;;;;;;;;;;;19.30;60.80;;;;;;5082047;28;19967;-68
2022/06/06 13:03:23;;;;;;;;;;;19.00;59.80;;;;;;5077798;28;19939;-68
2022/06/06 13:05:56;;;;;;;;;;;18.70;60.80;;;;;;5087714;28;20402;-67
2022/06/06 13:08:29;;;;;;;;;;;18.40;61.70;;;;;;5077214;28;19932;-68
2022/06/06 13:11:03;;;;;;;;;;;18.20;62.20;;;;;;5077423;28;20080;-68
2022/06/06 13:13:48;;;;;;;;;;;18.00;62.40;;;;;;5076374;28;21184;-68
2022/06/06 13:16:24;;;;;;;;;;;18.00;63.10;;;;;;5063290;28;20532;-68
2022/06/06 13:18:57;;;;;;;;;;;18.10;63.00;;;;;;5076723;28;20017;-69
2022/06/06 13:21:28;;;;;;;;;;;18.20;62.70;;;;;;5077989;28;19924;-69
2022/06/06 13:24:11;;;;;;;;;;;18.30;61.90;;;;;;5077674;28;20007;-69
2022/06/06 13:26:43;;;;;;;;;;;18.50;61.90;;;;;;5077404;28;19955;-68
2022/06/06 13:29:23;;;;;;;;;;;18.80;61.60;;;;;;5085960;28;20299;-68
2022/06/06 13:31:57;;;;;;;;;;;19.30;59.80;;;;;;5076757;28;19929;-68
2022/06/06 13:34:31;;;;;;;;;;;19.70;59.50;;;;;;5081901;28;20009;-68
2022/06/06 13:37:03;;;;;;;;;;;19.90;58.80;;;;;;5081781;28;20410;-68
2022/06/06 13:39:36;;;;;;;;;;;19.80;58.30;;;;;;5081339;28;19969;-67
2022/06/06 13:42:07;;;;;;;;;;;19.60;53.70;;;;;;5092473;28;20015;-67
2022/06/06 13:44:59;;;;;;;;;;;19.30;54.20;;;;;;5089832;28;19974;-67
2022/06/06 13:47:38;;;;;;;;;;;19.30;55.10;;;;;;5084512;28;19985;-68
2022/06/06 13:50:09;;;;;;;;;;;19.30;55.20;;;;;;5075377;28;19928;-67
2022/06/06 13:52:44;;;;;;;;;;;19.20;55.80;;;;;;5087576;28;19923;-68
2022/06/06 13:55:25;;;;;;;;;;;19.10;56.40;;;;;;5079555;28;20387;-69
2022/06/06 13:57:57;;;;;;;;;;;19.10;56.70;;;;;;5076279;28;19928;-69
2022/06/06 14:00:28;;;;;;;;;;;19.00;57.00;;;;;;5078991;28;19969;-69
2022/06/06 14:03:09;;;;;;;;;;;19.00;57.50;;;;;;5082838;28;19970;-68
2022/06/06 14:05:52;;;;;;;;;;;19.00;57.90;;;;;;5077386;28;19947;-68
2022/06/06 14:08:20;;;;;;;;;;;19.00;57.90;;;;;;5084048;28;19930;-68
2022/06/06 14:10:59;;;;;;;;;;;19.00;58.40;;;;;;5088380;28;20426;-68
2022/06/06 14:13:34;;;;;;;;;;;19.10;58.90;;;;;;5080029;28;19924;-68
2022/06/06 14:16:01;;;;;;;;;;;19.20;59.50;;;;;;5074223;28;19967;-67
2022/06/06 14:18:31;;;;;;;;;;;19.30;58.30;;;;;;5071037;28;20031;-68
2022/06/06 14:20:58;;;;;;;;;;;19.20;58.90;;;;;;5071991;28;20429;-67
2022/06/06 14:23:26;;;;;;;;;;;19.20;58.50;;;;;;5072594;28;19932;-69
2022/06/06 14:25:54;;;;;;;;;;;19.00;58.60;;;;;;5075426;28;19924;-67
2022/06/06 14:28:22;;;;;;;;;;;19.00;59.80;;;;;;5075780;28;20433;-67
2022/06/06 14:30:49;;;;;;;;;;;19.20;59.00;;;;;;5082624;28;19932;-67
2022/06/06 14:33:22;;;;;;;;;;;19.40;59.20;;;;;;5076996;28;20399;-67
2022/06/06 14:35:50;;;;;;;;;;;19.40;58.20;;;;;;5083884;28;19991;-68
2022/06/06 14:38:18;;;;;;;;;;;19.60;59.20;;;;;;5081859;28;19925;-67
2022/06/06 14:40:47;;;;;;;;;;;19.70;58.90;;;;;;5075077;28;20003;-67
2022/06/06 14:43:16;;;;;;;;;;;19.70;58.50;;;;;;5070657;28;20466;-67
2022/06/06 14:45:44;;;;;;;;;;;19.70;59.70;;;;;;5072131;28;19925;-67
2022/06/06 14:48:13;;;;;;;;;;;19.80;59.80;;;;;;5073996;28;19924;-67
2022/06/06 14:50:53;;;;;;;;;;;19.80;58.30;;;;;;5075805;28;20014;-67
2022/06/06 14:53:22;;;;;;;;;;;19.80;59.30;;;;;;5078093;28;20405;-68
2022/06/06 14:55:51;;;;;;;;;;;19.70;60.10;;;;;;5084684;28;20359;-68
2022/06/06 14:58:20;;;;;;;;;;;19.70;60.70;;;;;;5084188;28;20077;-68
2022/06/06 15:00:51;;;;;;;;;;;19.80;60.00;;;;;;5077826;28;19928;-67
2022/06/06 15:03:18;;;;;;;;;;;20.00;59.60;;;;;;5074154;28;19928;-68
2022/06/06 15:05:45;;;;;;;;;;;20.00;58.80;;;;;;5072515;28;19979;-69
2022/06/06 15:08:16;;;;;;;;;;;20.00;58.50;;;;;;5078922;28;20511;-68
2022/06/06 15:10:45;;;;;;;;;;;19.90;58.00;;;;;;5085087;28;19960;-69
2022/06/06 15:13:13;;;;;;;;;;;19.80;57.70;;;;;;5081189;28;19925;-66
2022/06/06 15:15:40;;;;;;;;;;;19.80;58.40;;;;;;5078231;28;19928;-67